Terminal Aerodrome Forecast
Issued by NWS

Home | Current Version | Previous Version | Text Only | Print | Product List | Glossary On
Versions: 1 2 3 4 5 6 7 8 9 10 11 12 13 14 15 16 17 18 19 20 21 22 23 24 25 26 27 28 29 30 31 32 33
000
FTUS45 KGJT 021125
TAFCNY
TAF
KCNY 021125Z 0212/0312 00000KT P6SM -RA BKN011 OVC030
     FM021600 18010KT P6SM VCSH SCT040 OVC060 WS020/24030KT
      TEMPO 0217/0221 19012G22KT -RA BKN040
     FM022100 24015G30KT 4SM -RA BR SCT015 OVC025
     FM030400 27012G20KT P6SM VCSH SCT025 BKN040=

USA.gov is the U.S. government's official web portal to all federal, state and local government web resources and services.